Terminal Aerodrome Forecast
Issued by NWS

Home | Current Version | Previous Version | Text Only | Print | Product List | Glossary On
Versions: 1 2 3 4 5 6 7 8 9 10 11 12 13 14 15 16 17 18 19 20 21 22 23 24 25 26
395
FTUS41 KLWX 172335
TAFMTN
TAF
KMTN 172335Z 1800/1824 VRB03KT P6SM SKC
     FM181300 03005KT P6SM FEW040
     FM181500 04007KT P6SM SCT040
     FM182300 06006KT P6SM FEW040
     AMD NOT SKED 1802/1812=

USA.gov is the U.S. government's official web portal to all federal, state and local government web resources and services.